Date,TemperatureHighF,TemperatureAvgF,TemperatureLowF,DewpointHighF,DewpointAvgF,DewpointLowF,HumidityHigh,HumidityAvg,HumidityLow,PressureMaxIn,PressureMinIn,WindSpeedMaxMPH,WindSpeedAvgMPH,GustSpeedMaxMPH,PrecipitationSumIn
2013-1-1,21.7,13.5,3.7,7.0,-0.3,-9.9,61,53,46,30.70,30.55,13,-50,15,0.00
2013-1-2,20.8,8.4,-3.5,7.0,-4.4,-15.2,66,55,48,30.79,30.67,8,-99,11,0.00
2013-1-3,15.6,0.5,-11.7,3.9,-11.0,-23.1,62,57,46,30.82,30.76,5,-7,8,0.00
2013-1-4,15.4,1.2,-12.8,3.2,-11.6,-22.2,62,55,45,30.79,30.64,7,-152,9,0.00
2013-1-5,30.4,12.6,-4.9,9.9,-4.8,-20.4,48,45,41,30.76,30.67,12,-305,12,0.00
2013-1-6,21.4,7.1,-3.8,3.6,-7.5,-18.6,56,50,45,30.73,30.55,6,-139,6,0.00
2013-1-7,27.5,13.6,-2.9,15.3,-1.3,-14.8,63,51,41,30.61,30.46,11,-57,11,0.00
2013-1-8,36.7,31.3,26.2,24.6,21.4,15.8,73,67,52,30.79,30.49,17,-120,18,0.00
2013-1-9,37.6,26.5,15.4,22.1,16.9,9.0,79,68,46,30.82,30.46,8,-36,11,0.00
2013-1-10,44.6,30.3,13.8,19.8,14.5,7.3,80,54,33,30.46,29.99,15,-70,20,0.00
2013-1-11,23.7,17.2,10.9,18.1,6.8,0.9,80,64,45,30.34,29.96,18,-209,18,0.00
2013-1-12,15.4,5.3,-1.7,3.2,-7.9,-18.2,65,55,44,30.43,30.34,8,-22,8,0.00
2013-1-13,17.1,3.8,-11.6,-0.6,-13.2,-27.4,46,44,44,30.52,30.43,8,1,11,0.00
2013-1-14,8.4,-3.7,-18.4,-9.0,-20.2,-33.7,44,44,44,30.61,30.52,20,4,23,0.00
2013-1-15,21.2,11.9,3.0,6.8,-2.5,-13.9,69,52,44,30.79,30.58,24,7,27,0.00
2013-1-16,29.5,20.8,13.1,12.2,7.3,3.6,73,57,42,30.87,30.76,23,3,24,0.00
2013-1-17,35.4,17.0,1.4,12.0,1.3,-11.4,57,50,36,30.93,30.82,10,1,15,0.00
2013-1-18,38.5,20.4,0.7,14.0,2.7,-11.0,69,47,31,30.82,30.70,16,2,18,0.00
2013-1-19,41.4,31.1,22.1,14.5,8.2,3.0,45,38,32,30.82,30.73,17,3,20,0.00
2013-1-20,40.8,30.3,20.1,11.8,6.0,0.3,43,35,29,30.79,30.70,15,2,22,0.00
2013-1-21,44.4,33.1,22.6,16.3,10.0,3.2,45,38,31,30.76,30.70,24,-26,29,0.00
2013-1-22,46.0,34.6,23.9,15.3,7.8,3.0,43,33,17,30.76,30.67,24,2,28,0.00
2013-1-23,40.8,24.5,10.9,16.0,6.6,-2.9,57,47,32,30.76,30.67,8,1,10,0.00
2013-1-24,45.3,31.4,20.1,31.3,20.7,7.9,79,65,41,30.73,30.64,11,1,14,0.00
2013-1-25,41.9,36.1,30.0,33.4,28.4,22.1,85,74,57,30.73,30.61,0,0,0,0.00
2013-1-26,46.2,34.8,25.3,30.0,24.3,20.1,83,67,45,30.61,30.34,4,0,7,0.00
2013-1-27,49.1,36.7,26.2,37.2,25.3,15.1,89,66,37,30.34,30.17,15,2,19,0.00
2013-1-28,27.0,22.3,14.7,16.3,9.0,1.9,77,57,37,30.37,30.28,12,1,15,0.00
2013-1-29,30.2,19.5,10.9,8.8,3.8,-1.7,64,51,32,30.49,30.25,9,1,15,0.00
2013-1-30,38.5,28.4,12.2,20.1,14.9,-0.6,69,57,42,30.52,30.43,20,2,24,0.00
2013-1-31,36.7,32.0,27.9,23.2,19.7,17.8,71,60,47,30.70,30.52,11,0,15,0.00
2013-2-1,42.8,34.3,28.2,23.4,19.2,13.8,71,55,38,30.76,30.58,20,1,26,0.00
2013-2-2,43.0,31.7,23.9,18.9,16.2,10.8,74,54,35,30.84,30.76,11,1,16,0.00
2013-2-3,44.4,31.4,23.2,14.4,10.7,6.4,58,43,23,30.76,30.52,17,2,22,0.00
2013-2-4,43.0,33.5,26.4,17.1,12.2,8.4,48,41,32,30.58,30.52,21,1,25,0.00
2013-2-5,51.4,38.1,30.4,19.4,14.3,10.2,49,38,26,30.58,30.40,11,1,12,0.00
2013-2-6,45.7,34.4,23.0,18.9,14.1,9.5,60,44,29,30.61,30.40,12,2,15,0.00
2013-2-7,43.5,26.8,12.4,16.2,9.5,2.8,68,50,29,30.64,30.43,10,1,10,0.00
2013-2-8,48.9,29.2,15.4,22.5,14.0,4.5,65,54,30,30.43,30.19,15,2,17,0.00
2013-2-9,39.7,28.6,23.0,22.5,17.8,13.6,81,65,39,30.25,30.17,9,1,12,0.00
2013-2-10,34.0,23.4,11.8,22.6,11.8,1.4,80,62,41,30.49,30.25,11,1,13,0.00
2013-2-11,28.0,14.2,0.7,7.7,-0.2,-9.2,62,53,41,30.55,30.49,15,1,15,0.00
2013-2-12,31.5,20.0,9.7,14.5,6.1,-5.3,69,55,45,30.61,30.55,26,2,30,0.00
2013-2-13,35.6,28.8,23.0,20.3,17.7,14.4,73,63,50,30.64,30.58,17,0,18,0.00
2013-2-14,40.5,30.0,23.5,19.6,15.6,11.3,73,56,37,30.73,30.58,13,1,19,0.00
2013-2-15,39.2,29.6,21.4,17.1,14.3,11.3,69,54,39,30.82,30.73,15,1,18,0.00
2013-2-16,47.3,33.5,24.3,18.1,14.1,9.7,59,46,30,30.79,30.49,15,2,17,0.00
2013-2-17,40.1,26.1,16.5,17.4,9.9,5.5,69,52,31,30.49,30.25,18,1,23,0.00
2013-2-18,36.1,23.6,15.8,11.3,6.3,1.0,67,49,31,30.52,30.46,17,2,17,0.00
2013-2-19,46.0,25.3,11.3,14.7,5.3,-0.6,61,44,22,30.46,30.19,9,2,13,0.00
2013-2-20,44.6,28.4,14.9,14.7,8.3,2.1,59,44,29,30.22,30.11,8,1,9,0.00
2013-2-21,34.5,26.1,20.3,18.3,12.7,6.1,69,57,46,30.40,30.22,11,0,15,0.00
2013-2-22,34.2,23.7,17.4,14.2,8.3,5.0,76,53,34,30.46,30.40,15,1,18,0.00
2013-2-23,38.7,26.5,19.9,25.3,15.8,7.5,80,64,44,30.40,30.19,11,0,15,0.00
2013-2-24,35.4,23.2,13.5,20.3,11.8,1.0,81,63,44,30.58,30.31,5,0,7,0.00
2013-2-25,34.5,22.5,11.1,13.1,5.9,-1.1,59,49,40,30.58,30.37,13,1,18,0.00
2013-2-26,36.1,24.0,14.9,13.8,8.3,2.1,62,51,33,30.67,30.40,9,1,14,0.00
2013-2-27,32.0,20.1,10.0,9.5,4.2,-1.8,73,50,36,30.76,30.67,13,2,17,0.00
2013-2-28,37.8,25.2,17.2,15.8,7.8,-0.4,59,47,39,30.82,30.73,13,1,17,0.00
2013-3-1,46.2,36.5,27.9,26.1,22.9,15.1,72,59,42,30.87,30.79,21,1,21,0.00
2013-3-2,35.6,33.6,30.6,24.6,23.8,22.6,72,67,59,30.87,30.84,0,0,0,0.00